Terminal Aerodrome Forecast
Issued by NWS

Home | Current Version | Previous Version | Text Only | Print | Product List | Glossary On
Versions: 1 2 3 4 5 6 7 8 9 10 11 12 13 14 15 16 17 18 19 20 21 22
000
FTUS46 KLOX 241744
TAFVNY
TAF
KVNY 241744Z 2418/2518 VRB03KT P6SM SKC
     FM242200 16008KT P6SM SCT200
     FM250300 13005KT P6SM SCT200
     FM250900 VRB03KT P6SM VCSH BKN060
     FM251300 VRB03KT P6SM VCSH BKN020 OVC040
     FM251700 VRB03KT P6SM SCT025=

USA.gov is the U.S. government's official web portal to all federal, state and local government web resources and services.